sensor_id;sensor_type;location;lat;lon;timestamp;pressure;altitude;pressure_sealevel;temperature;humidity
61478;BME280;47345;52.334;10.392;2023-10-31T00:02:18;98746.70;;;12.45;96.64
61478;BME280;47345;52.334;10.392;2023-10-31T00:04:50;98750.81;;;12.46;96.83
61478;BME280;47345;52.334;10.392;2023-10-31T00:07:20;98750.48;;;12.48;96.92
61478;BME280;47345;52.334;10.392;2023-10-31T00:09:51;98750.81;;;12.49;96.99
61478;BME280;47345;52.334;10.392;2023-10-31T00:12:22;98755.16;;;12.51;97.12
61478;BME280;47345;52.334;10.392;2023-10-31T00:14:52;98751.48;;;12.52;96.96
61478;BME280;47345;52.334;10.392;2023-10-31T00:17:23;98754.02;;;12.52;96.90
61478;BME280;47345;52.334;10.392;2023-10-31T00:19:54;98755.11;;;12.53;96.94
61478;BME280;47345;52.334;10.392;2023-10-31T00:22:25;98754.56;;;12.51;97.02
61478;BME280;47345;52.334;10.392;2023-10-31T00:24:56;98749.73;;;12.52;97.16
61478;BME280;47345;52.334;10.392;2023-10-31T00:27:27;98748.85;;;12.52;97.09
61478;BME280;47345;52.334;10.392;2023-10-31T00:29:57;98746.66;;;12.51;97.18
61478;BME280;47345;52.334;10.392;2023-10-31T00:32:28;98745.02;;;12.51;97.40
61478;BME280;47345;52.334;10.392;2023-10-31T00:34:59;98743.04;;;12.52;97.36
61478;BME280;47345;52.334;10.392;2023-10-31T00:37:30;98743.48;;;12.51;97.37
61478;BME280;47345;52.334;10.392;2023-10-31T00:40:00;98744.30;;;12.50;97.42
61478;BME280;47345;52.334;10.392;2023-10-31T00:42:31;98750.21;;;12.50;97.42
61478;BME280;47345;52.334;10.392;2023-10-31T00:45:02;98743.70;;;12.48;97.45
61478;BME280;47345;52.334;10.392;2023-10-31T00:47:33;98738.86;;;12.47;97.53
61478;BME280;47345;52.334;10.392;2023-10-31T00:50:05;98737.21;;;12.46;97.56
61478;BME280;47345;52.334;10.392;2023-10-31T00:52:36;98736.55;;;12.45;97.66
61478;BME280;47345;52.334;10.392;2023-10-31T00:55:07;98733.44;;;12.45;97.92
61478;BME280;47345;52.334;10.392;2023-10-31T00:57:38;98735.34;;;12.45;97.80
61478;BME280;47345;52.334;10.392;2023-10-31T01:00:11;98733.58;;;12.43;97.93
61478;BME280;47345;52.334;10.392;2023-10-31T01:02:42;98740.59;;;12.42;97.88
61478;BME280;47345;52.334;10.392;2023-10-31T01:05:13;98741.35;;;12.40;98.09
61478;BME280;47345;52.334;10.392;2023-10-31T01:07:44;98740.80;;;12.40;98.40
61478;BME280;47345;52.334;10.392;2023-10-31T01:10:14;98739.10;;;12.40;98.36
61478;BME280;47345;52.334;10.392;2023-10-31T01:12:45;98737.57;;;12.40;98.43
61478;BME280;47345;52.334;10.392;2023-10-31T01:15:16;98731.93;;;12.41;98.66
61478;BME280;47345;52.334;10.392;2023-10-31T01:17:47;98729.23;;;12.40;98.54
61478;BME280;47345;52.334;10.392;2023-10-31T01:20:17;98721.93;;;12.37;98.56
61478;BME280;47345;52.334;10.392;2023-10-31T01:22:48;98722.20;;;12.37;98.42
61478;BME280;47345;52.334;10.392;2023-10-31T01:25:19;98718.64;;;12.35;98.66
61478;BME280;47345;52.334;10.392;2023-10-31T01:27:49;98719.40;;;12.34;98.63
61478;BME280;47345;52.334;10.392;2023-10-31T01:30:21;98716.65;;;12.33;98.65
61478;BME280;47345;52.334;10.392;2023-10-31T01:32:51;98714.46;;;12.33;98.92
61478;BME280;47345;52.334;10.392;2023-10-31T01:35:22;98715.29;;;12.33;99.10
61478;BME280;47345;52.334;10.392;2023-10-31T01:37:52;98713.59;;;12.33;99.09
61478;BME280;47345;52.334;10.392;2023-10-31T01:40:24;98713.42;;;12.33;99.12
61478;BME280;47345;52.334;10.392;2023-10-31T01:42:56;98713.41;;;12.33;99.18
61478;BME280;47345;52.334;10.392;2023-10-31T01:45:26;98712.64;;;12.33;99.33
61478;BME280;47345;52.334;10.392;2023-10-31T01:47:57;98705.74;;;12.35;99.46
61478;BME280;47345;52.334;10.392;2023-10-31T01:50:28;98700.38;;;12.35;99.18
61478;BME280;47345;52.334;10.392;2023-10-31T01:52:59;98694.83;;;12.35;99.17
61478;BME280;47345;52.334;10.392;2023-10-31T01:55:30;98691.77;;;12.35;99.21
61478;BME280;47345;52.334;10.392;2023-10-31T01:58:01;98691.60;;;12.35;99.19
61478;BME280;47345;52.334;10.392;2023-10-31T02:00:32;98684.20;;;12.34;99.21
61478;BME280;47345;52.334;10.392;2023-10-31T02:03:03;98675.04;;;12.35;99.33
61478;BME280;47345;52.334;10.392;2023-10-31T02:05:35;98668.19;;;12.35;99.42
61478;BME280;47345;52.334;10.392;2023-10-31T02:08:06;98672.63;;;12.35;99.41
61478;BME280;47345;52.334;10.392;2023-10-31T02:10:37;98667.25;;;12.34;99.50
61478;BME280;47345;52.334;10.392;2023-10-31T02:13:15;98665.06;;;12.34;99.52
61478;BME280;47345;52.334;10.392;2023-10-31T02:15:46;98656.84;;;12.34;99.66
61478;BME280;47345;52.334;10.392;2023-10-31T02:18:17;98654.36;;;12.35;99.76
61478;BME280;47345;52.334;10.392;2023-10-31T02:20:49;98649.21;;;12.36;99.84
61478;BME280;47345;52.334;10.392;2023-10-31T02:23:19;98650.54;;;12.37;99.97
61478;BME280;47345;52.334;10.392;2023-10-31T02:25:50;98649.16;;;12.36;99.91
61478;BME280;47345;52.334;10.392;2023-10-31T02:28:21;98651.85;;;12.38;100.00
61478;BME280;47345;52.334;10.392;2023-10-31T02:30:52;98646.64;;;12.36;99.99
61478;BME280;47345;52.334;10.392;2023-10-31T02:33:22;98645.33;;;12.35;99.99
61478;BME280;47345;52.334;10.392;2023-10-31T02:35:53;98644.06;;;12.34;100.00
61478;BME280;47345;52.334;10.392;2023-10-31T02:38:23;98639.90;;;12.34;100.00
61478;BME280;47345;52.334;10.392;2023-10-31T02:40:54;98640.61;;;12.34;100.00
61478;BME280;47345;52.334;10.392;2023-10-31T02:43:25;98635.84;;;12.33;100.00
61478;BME280;47345;52.334;10.392;2023-10-31T02:45:56;98628.04;;;12.33;100.00
61478;BME280;47345;52.334;10.392;2023-10-31T02:48:27;98625.42;;;12.33;100.00
61478;BME280;47345;52.334;10.392;2023-10-31T02:50:58;98626.02;;;12.35;100.00
61478;BME280;47345;52.334;10.392;2023-10-31T02:53:29;98625.86;;;12.37;100.00
61478;BME280;47345;52.334;10.392;2023-10-31T02:55:59;98623.01;;;12.38;100.00
61478;BME280;47345;52.334;10.392;2023-10-31T02:58:30;98619.23;;;12.40;100.00
61478;BME280;47345;52.334;10.392;2023-10-31T03:01:01;98620.29;;;12.43;100.00
61478;BME280;47345;52.334;10.392;2023-10-31T03:03:32;98622.38;;;12.45;100.00
61478;BME280;47345;52.334;10.392;2023-10-31T03:06:03;98627.25;;;12.48;100.00
61478;BME280;47345;52.334;10.392;2023-10-31T03:08:34;98625.35;;;12.50;100.00
61478;BME280;47345;52.334;10.392;2023-10-31T03:11:05;98624.52;;;12.53;100.00
61478;BME280;47345;52.334;10.392;2023-10-31T03:13:35;98627.92;;;12.54;100.00
61478;BME280;47345;52.334;10.392;2023-10-31T03:16:07;98627.60;;;12.56;100.00
61478;BME280;47345;52.334;10.392;2023-10-31T03:18:38;98626.34;;;12.58;100.00
61478;BME280;47345;52.334;10.392;2023-10-31T03:21:08;98628.60;;;12.60;100.00
61478;BME280;47345;52.334;10.392;2023-10-31T03:23:39;98624.36;;;12.61;100.00
61478;BME280;47345;52.334;10.392;2023-10-31T03:26:09;98621.13;;;12.62;100.00
61478;BME280;47345;52.334;10.392;2023-10-31T03:28:40;98620.31;;;12.61;100.00
61478;BME280;47345;52.334;10.392;2023-10-31T03:31:12;98621.95;;;12.61;100.00
61478;BME280;47345;52.334;10.392;2023-10-31T03:33:43;98623.82;;;12.62;100.00
61478;BME280;47345;52.334;10.392;2023-10-31T03:36:13;98618.77;;;12.63;100.00
61478;BME280;47345;52.334;10.392;2023-10-31T03:38:44;98617.90;;;12.65;100.00
61478;BME280;47345;52.334;10.392;2023-10-31T03:41:15;98616.02;;;12.66;100.00
61478;BME280;47345;52.334;10.392;2023-10-31T03:43:45;98621.46;;;12.67;100.00
61478;BME280;47345;52.334;10.392;2023-10-31T03:46:16;98619.16;;;12.69;100.00
61478;BME280;47345;52.334;10.392;2023-10-31T03:48:47;98624.38;;;12.70;100.00
61478;BME280;47345;52.334;10.392;2023-10-31T03:51:18;98628.22;;;12.72;100.00
61478;BME280;47345;52.334;10.392;2023-10-31T03:53:49;98633.41;;;12.72;100.00
61478;BME280;47345;52.334;10.392;2023-10-31T03:56:19;98627.84;;;12.72;100.00
61478;BME280;47345;52.334;10.392;2023-10-31T03:58:50;98621.40;;;12.73;100.00
61478;BME280;47345;52.334;10.392;2023-10-31T04:01:20;98620.42;;;12.73;100.00
61478;BME280;47345;52.334;10.392;2023-10-31T04:03:51;98620.20;;;12.73;100.00
61478;BME280;47345;52.334;10.392;2023-10-31T04:06:22;98620.30;;;12.74;100.00
61478;BME280;47345;52.334;10.392;2023-10-31T04:08:52;98624.87;;;12.74;100.00
61478;BME280;47345;52.334;10.392;2023-10-31T04:11:23;98627.50;;;12.73;100.00
61478;BME280;47345;52.334;10.392;2023-10-31T04:13:54;98636.16;;;12.72;100.00
61478;BME280;47345;52.334;10.392;2023-10-31T04:16:25;98644.28;;;12.72;100.00
61478;BME280;47345;52.334;10.392;2023-10-31T04:18:55;98662.67;;;12.69;97.82
61478;BME280;47345;52.334;10.392;2023-10-31T04:21:26;98666.83;;;12.60;94.29
61478;BME280;47345;52.334;10.392;2023-10-31T04:23:57;98673.38;;;12.49;92.40
61478;BME280;47345;52.334;10.392;2023-10-31T04:26:27;98675.66;;;12.37;91.45
61478;BME280;47345;52.334;10.392;2023-10-31T04:28:58;98672.88;;;12.28;90.15
61478;BME280;47345;52.334;10.392;2023-10-31T04:31:29;98670.73;;;12.20;90.06
61478;BME280;47345;52.334;10.392;2023-10-31T04:34:12;98670.48;;;12.12;90.31
61478;BME280;47345;52.334;10.392;2023-10-31T04:36:43;98675.23;;;12.06;90.11
61478;BME280;47345;52.334;10.392;2023-10-31T04:39:13;98677.67;;;12.02;89.90
61478;BME280;47345;52.334;10.392;2023-10-31T04:41:44;98687.98;;;11.98;89.66
61478;BME280;47345;52.334;10.392;2023-10-31T04:44:14;98695.64;;;11.95;89.40
61478;BME280;47345;52.334;10.392;2023-10-31T04:46:46;98695.85;;;11.91;88.88
61478;BME280;47345;52.334;10.392;2023-10-31T04:49:17;98696.09;;;11.87;88.18
61478;BME280;47345;52.334;10.392;2023-10-31T04:51:48;98696.41;;;11.84;88.25
61478;BME280;47345;52.334;10.392;2023-10-31T04:54:18;98687.23;;;11.81;87.96
61478;BME280;47345;52.334;10.392;2023-10-31T04:56:50;98690.52;;;11.77;87.94
61478;BME280;47345;52.334;10.392;2023-10-31T04:59:21;98704.03;;;11.75;88.09
61478;BME280;47345;52.334;10.392;2023-10-31T05:01:52;98699.08;;;11.73;88.06
61478;BME280;47345;52.334;10.392;2023-10-31T05:04:24;98699.23;;;11.71;88.14
61478;BME280;47345;52.334;10.392;2023-10-31T05:06:55;98703.34;;;11.70;87.98
61478;BME280;47345;52.334;10.392;2023-10-31T05:09:27;98703.33;;;11.68;88.09
61478;BME280;47345;52.334;10.392;2023-10-31T05:11:58;98711.32;;;11.67;88.10
61478;BME280;47345;52.334;10.392;2023-10-31T05:14:29;98713.55;;;11.66;88.08
61478;BME280;47345;52.334;10.392;2023-10-31T05:17:00;98714.39;;;11.65;87.52
61478;BME280;47345;52.334;10.392;2023-10-31T05:19:31;98714.05;;;11.64;86.95
61478;BME280;47345;52.334;10.392;2023-10-31T05:22:02;98716.67;;;11.62;86.54
61478;BME280;47345;52.334;10.392;2023-10-31T05:24:32;98727.17;;;11.61;86.38
61478;BME280;47345;52.334;10.392;2023-10-31T05:27:04;98720.64;;;11.60;85.73
61478;BME280;47345;52.334;10.392;2023-10-31T05:29:38;98727.41;;;11.56;85.65
61478;BME280;47345;52.334;10.392;2023-10-31T05:32:09;98726.58;;;11.56;85.56
61478;BME280;47345;52.334;10.392;2023-10-31T05:34:39;98732.82;;;11.55;85.42
61478;BME280;47345;52.334;10.392;2023-10-31T05:37:10;98739.33;;;11.53;85.54
61478;BME280;47345;52.334;10.392;2023-10-31T05:39:41;98741.07;;;11.52;85.43
61478;BME280;47345;52.334;10.392;2023-10-31T05:42:11;98752.39;;;11.50;85.01
61478;BME280;47345;52.334;10.392;2023-10-31T05:44:42;98754.72;;;11.46;84.76
61478;BME280;47345;52.334;10.392;2023-10-31T05:47:13;98764.82;;;11.42;84.12
61478;BME280;47345;52.334;10.392;2023-10-31T05:49:45;98760.63;;;11.39;83.96
61478;BME280;47345;52.334;10.392;2023-10-31T05:52:16;98767.06;;;11.36;83.60
61478;BME280;47345;52.334;10.392;2023-10-31T05:54:47;98762.94;;;11.34;83.25
61478;BME280;47345;52.334;10.392;2023-10-31T05:57:17;98769.05;;;11.32;83.28
61478;BME280;47345;52.334;10.392;2023-10-31T05:59:48;98768.61;;;11.29;82.96
61478;BME280;47345;52.334;10.392;2023-10-31T06:02:19;98774.16;;;11.28;82.96
61478;BME280;47345;52.334;10.392;2023-10-31T06:04:50;98773.00;;;11.26;82.61
61478;BME280;47345;52.334;10.392;2023-10-31T06:07:20;98775.11;;;11.24;82.34
61478;BME280;47345;52.334;10.392;2023-10-31T06:09:51;98772.48;;;11.24;82.28
61478;BME280;47345;52.334;10.392;2023-10-31T06:12:22;98775.21;;;11.22;82.16
61478;BME280;47345;52.334;10.392;2023-10-31T06:14:52;98776.89;;;11.21;82.35
61478;BME280;47345;52.334;10.392;2023-10-31T06:17:23;98776.89;;;11.20;82.22
61478;BME280;47345;52.334;10.392;2023-10-31T06:19:55;98780.61;;;11.20;82.16
61478;BME280;47345;52.334;10.392;2023-10-31T06:22:26;98783.45;;;11.19;82.23
61478;BME280;47345;52.334;10.392;2023-10-31T06:24:56;98783.11;;;11.19;82.53
61478;BME280;47345;52.334;10.392;2023-10-31T06:27:27;98790.40;;;11.20;82.59
61478;BME280;47345;52.334;10.392;2023-10-31T06:29:58;98792.70;;;11.19;82.67
61478;BME280;47345;52.334;10.392;2023-10-31T06:32:49;98794.55;;;11.19;82.83
61478;BME280;47345;52.334;10.392;2023-10-31T06:35:19;98809.08;;;11.20;82.83
61478;BME280;47345;52.334;10.392;2023-10-31T06:37:50;98808.75;;;11.20;82.93
61478;BME280;47345;52.334;10.392;2023-10-31T06:40:21;98814.66;;;11.20;82.71
61478;BME280;47345;52.334;10.392;2023-10-31T06:42:52;98822.21;;;11.21;82.47
61478;BME280;47345;52.334;10.392;2023-10-31T06:45:23;98825.38;;;11.20;82.15
61478;BME280;47345;52.334;10.392;2023-10-31T06:47:53;98825.98;;;11.20;82.22
61478;BME280;47345;52.334;10.392;2023-10-31T06:50:24;98831.94;;;11.19;82.18
61478;BME280;47345;52.334;10.392;2023-10-31T06:52:55;98836.53;;;11.18;82.23
61478;BME280;47345;52.334;10.392;2023-10-31T06:55:26;98838.94;;;11.18;82.24
61478;BME280;47345;52.334;10.392;2023-10-31T06:57:56;98837.33;;;11.21;82.38
61478;BME280;47345;52.334;10.392;2023-10-31T07:00:27;98840.64;;;11.24;82.37
61478;BME280;47345;52.334;10.392;2023-10-31T07:02:57;98842.85;;;11.27;82.04
61478;BME280;47345;52.334;10.392;2023-10-31T07:05:34;98844.40;;;11.28;81.99
61478;BME280;47345;52.334;10.392;2023-10-31T07:08:06;98845.73;;;11.31;81.96
61478;BME280;47345;52.334;10.392;2023-10-31T07:10:36;98843.55;;;11.31;81.77
61478;BME280;47345;52.334;10.392;2023-10-31T07:13:07;98846.83;;;11.30;81.64
61478;BME280;47345;52.334;10.392;2023-10-31T07:15:38;98848.94;;;11.28;81.59
61478;BME280;47345;52.334;10.392;2023-10-31T07:18:09;98848.00;;;11.26;81.57
61478;BME280;47345;52.334;10.392;2023-10-31T07:20:40;98850.55;;;11.25;81.68
61478;BME280;47345;52.334;10.392;2023-10-31T07:23:11;98851.59;;;11.24;81.76
61478;BME280;47345;52.334;10.392;2023-10-31T07:25:42;98848.80;;;11.24;81.76
61478;BME280;47345;52.334;10.392;2023-10-31T07:28:13;98854.42;;;11.23;81.98
61478;BME280;47345;52.334;10.392;2023-10-31T07:30:43;98858.90;;;11.22;81.94
61478;BME280;47345;52.334;10.392;2023-10-31T07:33:14;98858.13;;;11.22;82.05
61478;BME280;47345;52.334;10.392;2023-10-31T07:35:45;98859.80;;;11.24;81.89
61478;BME280;47345;52.334;10.392;2023-10-31T07:38:15;98863.66;;;11.27;81.74
61478;BME280;47345;52.334;10.392;2023-10-31T07:40:46;98867.60;;;11.38;81.83
61478;BME280;47345;52.334;10.392;2023-10-31T07:43:18;98877.52;;;11.54;81.73
61478;BME280;47345;52.334;10.392;2023-10-31T07:45:49;98880.35;;;11.65;81.31
61478;BME280;47345;52.334;10.392;2023-10-31T07:48:19;98877.69;;;11.75;80.58
61478;BME280;47345;52.334;10.392;2023-10-31T07:50:50;98880.17;;;11.85;80.70
61478;BME280;47345;52.334;10.392;2023-10-31T07:53:21;98878.80;;;11.90;80.58
61478;BME280;47345;52.334;10.392;2023-10-31T07:55:51;98878.27;;;11.93;79.99
61478;BME280;47345;52.334;10.392;2023-10-31T07:58:22;98884.33;;;11.90;79.76
61478;BME280;47345;52.334;10.392;2023-10-31T08:00:52;98888.24;;;11.87;79.79
61478;BME280;47345;52.334;10.392;2023-10-31T08:03:23;98888.70;;;11.82;79.94
61478;BME280;47345;52.334;10.392;2023-10-31T08:05:54;98895.40;;;11.77;80.35
61478;BME280;47345;52.334;10.392;2023-10-31T08:08:25;98896.83;;;11.73;80.72
61478;BME280;47345;52.334;10.392;2023-10-31T08:10:56;98905.43;;;11.67;80.96
61478;BME280;47345;52.334;10.392;2023-10-31T08:13:29;98905.02;;;11.62;81.55
61478;BME280;47345;52.334;10.392;2023-10-31T08:15:59;98907.83;;;11.58;82.18
61478;BME280;47345;52.334;10.392;2023-10-31T08:18:30;98907.92;;;11.57;82.77
61478;BME280;47345;52.334;10.392;2023-10-31T08:21:01;98907.05;;;11.57;83.11
61478;BME280;47345;52.334;10.392;2023-10-31T08:23:33;98908.27;;;11.59;83.41
61478;BME280;47345;52.334;10.392;2023-10-31T08:26:05;98909.73;;;11.56;83.33
61478;BME280;47345;52.334;10.392;2023-10-31T08:28:35;98915.73;;;11.53;83.58
61478;BME280;47345;52.334;10.392;2023-10-31T08:31:06;98914.27;;;11.49;83.93
61478;BME280;47345;52.334;10.392;2023-10-31T08:33:37;98922.59;;;11.45;84.07
61478;BME280;47345;52.334;10.392;2023-10-31T08:36:09;98927.10;;;11.41;84.18
61478;BME280;47345;52.334;10.392;2023-10-31T08:38:40;98934.25;;;11.40;84.53
61478;BME280;47345;52.334;10.392;2023-10-31T08:41:10;98941.42;;;11.39;84.99
61478;BME280;47345;52.334;10.392;2023-10-31T08:43:42;98945.77;;;11.35;85.25
61478;BME280;47345;52.334;10.392;2023-10-31T08:46:12;98955.48;;;11.34;85.52
61478;BME280;47345;52.334;10.392;2023-10-31T08:48:43;98957.36;;;11.30;85.96
61478;BME280;47345;52.334;10.392;2023-10-31T08:51:14;98953.23;;;11.28;86.50
61478;BME280;47345;52.334;10.392;2023-10-31T08:53:44;98951.56;;;11.35;86.66
61478;BME280;47345;52.334;10.392;2023-10-31T08:56:15;98956.51;;;11.42;86.41
61478;BME280;47345;52.334;10.392;2023-10-31T08:58:46;98964.21;;;11.49;86.26
61478;BME280;47345;52.334;10.392;2023-10-31T09:01:16;98965.90;;;11.59;86.02
61478;BME280;47345;52.334;10.392;2023-10-31T09:03:47;98973.84;;;11.71;86.01
61478;BME280;47345;52.334;10.392;2023-10-31T09:06:18;98978.36;;;11.78;85.86
61478;BME280;47345;52.334;10.392;2023-10-31T09:08:49;98974.34;;;11.83;85.71
61478;BME280;47345;52.334;10.392;2023-10-31T09:11:20;98982.38;;;11.86;85.30
61478;BME280;47345;52.334;10.392;2023-10-31T09:13:51;98979.95;;;11.91;85.22
61478;BME280;47345;52.334;10.392;2023-10-31T09:16:21;98990.48;;;11.96;85.18
61478;BME280;47345;52.334;10.392;2023-10-31T09:18:52;98988.68;;;12.01;84.71
61478;BME280;47345;52.334;10.392;2023-10-31T09:21:23;98996.75;;;12.06;84.27
61478;BME280;47345;52.334;10.392;2023-10-31T09:23:54;99007.66;;;12.13;84.07
61478;BME280;47345;52.334;10.392;2023-10-31T09:26:24;99011.77;;;12.20;83.71
61478;BME280;47345;52.334;10.392;2023-10-31T09:28:56;99012.73;;;12.25;83.07
61478;BME280;47345;52.334;10.392;2023-10-31T09:31:27;99014.88;;;12.31;83.07
61478;BME280;47345;52.334;10.392;2023-10-31T09:33:58;99022.02;;;12.41;82.53
61478;BME280;47345;52.334;10.392;2023-10-31T09:36:28;99023.92;;;12.51;81.73
61478;BME280;47345;52.334;10.392;2023-10-31T09:38:59;99023.63;;;12.64;81.60
61478;BME280;47345;52.334;10.392;2023-10-31T09:41:30;99031.16;;;12.74;80.47
61478;BME280;47345;52.334;10.392;2023-10-31T09:44:02;99033.73;;;12.80;80.22
61478;BME280;47345;52.334;10.392;2023-10-31T09:46:33;99036.89;;;12.88;80.11
61478;BME280;47345;52.334;10.392;2023-10-31T09:49:04;99039.41;;;12.92;78.87
61478;BME280;47345;52.334;10.392;2023-10-31T09:51:35;99042.75;;;12.91;78.38
61478;BME280;47345;52.334;10.392;2023-10-31T09:54:07;99047.66;;;12.88;78.38
61478;BME280;47345;52.334;10.392;2023-10-31T09:56:38;99051.56;;;12.89;78.23
61478;BME280;47345;52.334;10.392;2023-10-31T09:59:09;99055.55;;;12.93;78.14
61478;BME280;47345;52.334;10.392;2023-10-31T10:01:40;99057.91;;;13.02;78.02
61478;BME280;47345;52.334;10.392;2023-10-31T10:04:11;99059.30;;;13.04;77.68
61478;BME280;47345;52.334;10.392;2023-10-31T10:06:52;99059.61;;;12.93;76.93
61478;BME280;47345;52.334;10.392;2023-10-31T10:09:29;99076.68;;;12.80;76.98
61478;BME280;47345;52.334;10.392;2023-10-31T10:12:02;99086.55;;;12.63;77.92
61478;BME280;47345;52.334;10.392;2023-10-31T10:14:35;99096.14;;;12.43;78.71
61478;BME280;47345;52.334;10.392;2023-10-31T10:17:15;99103.38;;;12.27;79.63
61478;BME280;47345;52.334;10.392;2023-10-31T10:19:46;99106.59;;;12.12;80.37
61478;BME280;47345;52.334;10.392;2023-10-31T10:22:21;99110.48;;;12.02;80.68
61478;BME280;47345;52.334;10.392;2023-10-31T10:24:59;99117.00;;;11.95;81.42
61478;BME280;47345;52.334;10.392;2023-10-31T10:27:29;99113.63;;;11.92;82.07
61478;BME280;47345;52.334;10.392;2023-10-31T10:30:00;99121.15;;;11.97;82.29
61478;BME280;47345;52.334;10.392;2023-10-31T10:32:31;99122.98;;;12.03;82.13
61478;BME280;47345;52.334;10.392;2023-10-31T10:35:02;99120.23;;;12.12;81.56
61478;BME280;47345;52.334;10.392;2023-10-31T10:37:32;99127.50;;;12.15;80.69
61478;BME280;47345;52.334;10.392;2023-10-31T10:40:08;99125.06;;;12.18;80.39
61478;BME280;47345;52.334;10.392;2023-10-31T10:42:46;99126.35;;;12.21;80.05
61478;BME280;47345;52.334;10.392;2023-10-31T10:45:18;99134.02;;;12.25;79.68
61478;BME280;47345;52.334;10.392;2023-10-31T10:47:51;99134.08;;;12.29;79.66
61478;BME280;47345;52.334;10.392;2023-10-31T10:50:25;99131.35;;;12.32;79.49
61478;BME280;47345;52.334;10.392;2023-10-31T10:53:07;99142.09;;;12.36;78.74
61478;BME280;47345;52.334;10.392;2023-10-31T10:55:43;99141.19;;;12.34;78.60
61478;BME280;47345;52.334;10.392;2023-10-31T10:58:22;99144.72;;;12.35;77.88
61478;BME280;47345;52.334;10.392;2023-10-31T11:00:54;99148.25;;;12.38;77.77
61478;BME280;47345;52.334;10.392;2023-10-31T11:03:25;99149.34;;;12.38;77.81
61478;BME280;47345;52.334;10.392;2023-10-31T11:05:58;99146.23;;;12.34;78.29
61478;BME280;47345;52.334;10.392;2023-10-31T11:08:29;99151.70;;;12.32;78.83
61478;BME280;47345;52.334;10.392;2023-10-31T11:11:01;99148.80;;;12.28;78.84
61478;BME280;47345;52.334;10.392;2023-10-31T11:13:32;99143.87;;;12.28;78.80
61478;BME280;47345;52.334;10.392;2023-10-31T11:16:09;99145.06;;;12.32;78.95
61478;BME280;47345;52.334;10.392;2023-10-31T11:18:41;99147.23;;;12.40;78.36
61478;BME280;47345;52.334;10.392;2023-10-31T11:21:12;99146.23;;;12.54;78.67
61478;BME280;47345;52.334;10.392;2023-10-31T11:23:43;99137.30;;;12.76;78.10
61478;BME280;47345;52.334;10.392;2023-10-31T11:26:14;99141.70;;;12.98;77.38
61478;BME280;47345;52.334;10.392;2023-10-31T11:28:45;99136.95;;;13.14;77.04
61478;BME280;47345;52.334;10.392;2023-10-31T11:31:15;99135.31;;;13.26;76.48
61478;BME280;47345;52.334;10.392;2023-10-31T11:33:48;99130.80;;;13.34;75.93
61478;BME280;47345;52.334;10.392;2023-10-31T11:36:21;99130.82;;;13.37;75.25
61478;BME280;47345;52.334;10.392;2023-10-31T11:39:11;99137.74;;;13.41;75.22
61478;BME280;47345;52.334;10.392;2023-10-31T11:41:47;99143.83;;;13.41;75.21
61478;BME280;47345;52.334;10.392;2023-10-31T11:44:23;99155.23;;;13.32;75.08
61478;BME280;47345;52.334;10.392;2023-10-31T11:46:59;99151.52;;;13.28;75.08
61478;BME280;47345;52.334;10.392;2023-10-31T11:49:47;99147.80;;;13.29;75.44
61478;BME280;47345;52.334;10.392;2023-10-31T11:52:18;99150.86;;;13.28;75.09
61478;BME280;47345;52.334;10.392;2023-10-31T11:54:49;99151.94;;;13.31;75.03
61478;BME280;47345;52.334;10.392;2023-10-31T11:57:30;99157.41;;;13.38;74.80
61478;BME280;47345;52.334;10.392;2023-10-31T12:00:01;99159.84;;;13.43;74.82
61478;BME280;47345;52.334;10.392;2023-10-31T12:02:33;99164.23;;;13.44;74.72
61478;BME280;47345;52.334;10.392;2023-10-31T12:05:13;99166.66;;;13.44;74.88
61478;BME280;47345;52.334;10.392;2023-10-31T12:07:45;99168.36;;;13.40;74.69
61478;BME280;47345;52.334;10.392;2023-10-31T12:10:23;99176.41;;;13.37;75.20
61478;BME280;47345;52.334;10.392;2023-10-31T12:12:54;99176.25;;;13.31;75.51
61478;BME280;47345;52.334;10.392;2023-10-31T12:15:25;99176.72;;;13.26;75.80
61478;BME280;47345;52.334;10.392;2023-10-31T12:18:00;99175.66;;;13.23;75.80
61478;BME280;47345;52.334;10.392;2023-10-31T12:20:31;99176.70;;;13.21;75.73
61478;BME280;47345;52.334;10.392;2023-10-31T12:23:05;99179.14;;;13.24;75.33
61478;BME280;47345;52.334;10.392;2023-10-31T12:25:47;99185.06;;;13.26;75.77
61478;BME280;47345;52.334;10.392;2023-10-31T12:28:21;99186.67;;;13.36;75.79
61478;BME280;47345;52.334;10.392;2023-10-31T12:30:53;99187.76;;;13.46;76.25
61478;BME280;47345;52.334;10.392;2023-10-31T12:33:27;99186.06;;;13.55;75.37
61478;BME280;47345;52.334;10.392;2023-10-31T12:35:59;99196.04;;;13.60;75.08
61478;BME280;47345;52.334;10.392;2023-10-31T12:38:31;99194.08;;;13.64;74.78
61478;BME280;47345;52.334;10.392;2023-10-31T12:41:02;99198.42;;;13.64;74.48
61478;BME280;47345;52.334;10.392;2023-10-31T12:43:33;99206.41;;;13.59;73.64
61478;BME280;47345;52.334;10.392;2023-10-31T12:46:27;99205.70;;;13.49;74.23
61478;BME280;47345;52.334;10.392;2023-10-31T12:48:59;99203.06;;;13.39;74.24
61478;BME280;47345;52.334;10.392;2023-10-31T12:51:29;99204.69;;;13.35;74.68
61478;BME280;47345;52.334;10.392;2023-10-31T12:54:00;99208.30;;;13.40;74.66
61478;BME280;47345;52.334;10.392;2023-10-31T12:56:38;99215.61;;;13.47;75.09
61478;BME280;47345;52.334;10.392;2023-10-31T12:59:10;99221.54;;;13.52;74.41
61478;BME280;47345;52.334;10.392;2023-10-31T13:01:45;99219.02;;;13.54;74.40
61478;BME280;47345;52.334;10.392;2023-10-31T13:04:25;99228.53;;;13.55;73.98
61478;BME280;47345;52.334;10.392;2023-10-31T13:06:59;99235.96;;;13.49;74.26
61478;BME280;47345;52.334;10.392;2023-10-31T13:09:31;99238.91;;;13.48;74.19
61478;BME280;47345;52.334;10.392;2023-10-31T13:12:06;99239.77;;;13.50;74.33